Time;durP1;ratioP1;P1;durP2;ratioP2;P2;SDS_P1;SDS_P2;PMS_P1;PMS_P2;Temp;Humidity;BMP_temperature;BMP_pressure;BME280_temperature;BME280_humidity;BME280_pressure;Samples;Min_cycle;Max_cycle;Signal;HPM_P1;HPM_P2
2022/09/12 00:01:24;;;;;;;;;;;13.50;99.90;;;;;;5007708;28;20428;-68
2022/09/12 00:03:51;;;;;;;;;;;13.50;99.90;;;;;;5007994;28;19935;-68
2022/09/12 00:06:18;;;;;;;;;;;13.50;99.90;;;;;;5007867;28;19961;-68
2022/09/12 00:08:44;;;;;;;;;;;13.50;99.90;;;;;;5008116;28;19917;-68
2022/09/12 00:11:11;;;;;;;;;;;13.50;99.90;;;;;;5007007;28;19928;-68
2022/09/12 00:13:37;;;;;;;;;;;13.50;99.90;;;;;;5007366;28;19925;-68
2022/09/12 00:16:03;;;;;;;;;;;13.50;99.90;;;;;;5007851;28;20012;-68
2022/09/12 00:18:30;;;;;;;;;;;13.40;99.90;;;;;;5007939;28;19921;-68
2022/09/12 00:20:56;;;;;;;;;;;13.40;99.90;;;;;;4990830;28;19921;-68
2022/09/12 00:23:22;;;;;;;;;;;13.40;99.90;;;;;;4975436;28;20345;-68
2022/09/12 00:25:48;;;;;;;;;;;13.40;99.90;;;;;;4990531;28;20059;-68
2022/09/12 00:28:15;;;;;;;;;;;13.40;99.90;;;;;;5007544;28;19917;-68
2022/09/12 00:30:44;;;;;;;;;;;13.40;99.90;;;;;;5007090;28;20378;-68
2022/09/12 00:33:10;;;;;;;;;;;13.40;99.90;;;;;;5007520;28;20350;-68
2022/09/12 00:35:40;;;;;;;;;;;13.40;99.90;;;;;;5006612;28;19972;-68
2022/09/12 00:38:06;;;;;;;;;;;13.40;99.90;;;;;;5007255;28;19996;-68
2022/09/12 00:40:31;;;;;;;;;;;13.40;99.90;;;;;;4987981;28;20537;-68
2022/09/12 00:42:57;;;;;;;;;;;13.40;99.90;;;;;;5007272;28;20173;-68
2022/09/12 00:45:26;;;;;;;;;;;13.40;99.90;;;;;;4990473;28;19967;-68
2022/09/12 00:47:52;;;;;;;;;;;13.40;99.90;;;;;;5006657;28;19917;-68
2022/09/12 00:50:17;;;;;;;;;;;13.40;99.90;;;;;;4990232;28;19921;-68
2022/09/12 00:52:46;;;;;;;;;;;13.30;99.90;;;;;;4990954;28;19954;-68
2022/09/12 00:55:20;;;;;;;;;;;13.30;99.90;;;;;;5007217;28;20285;-68
2022/09/12 00:57:58;;;;;;;;;;;13.30;99.90;;;;;;5006844;28;20360;-68
2022/09/12 01:00:25;;;;;;;;;;;13.20;99.90;;;;;;4990267;28;19960;-68
2022/09/12 01:02:55;;;;;;;;;;;13.20;99.90;;;;;;4990771;28;20542;-68
2022/09/12 01:05:22;;;;;;;;;;;13.20;99.90;;;;;;5006772;28;19933;-68
2022/09/12 01:07:48;;;;;;;;;;;13.20;99.90;;;;;;4990147;28;19928;-68
2022/09/12 01:10:15;;;;;;;;;;;13.20;99.90;;;;;;5004506;28;19923;-68
2022/09/12 01:12:41;;;;;;;;;;;13.20;99.90;;;;;;4989856;28;19964;-68
2022/09/12 01:15:08;;;;;;;;;;;13.20;99.90;;;;;;5006579;28;19991;-68
2022/09/12 01:17:41;;;;;;;;;;;13.20;99.90;;;;;;5006324;28;19965;-68
2022/09/12 01:20:10;;;;;;;;;;;13.20;99.90;;;;;;5006575;28;19995;-68
2022/09/12 01:22:48;;;;;;;;;;;13.10;99.90;;;;;;4990430;28;20357;-68
2022/09/12 01:25:33;;;;;;;;;;;13.10;99.90;;;;;;4990241;28;19924;-68
2022/09/12 01:28:10;;;;;;;;;;;13.10;99.90;;;;;;5006565;28;19921;-68
2022/09/12 01:30:39;;;;;;;;;;;13.10;99.90;;;;;;5005667;28;19921;-68
2022/09/12 01:33:07;;;;;;;;;;;13.10;99.90;;;;;;5006145;28;19917;-68
2022/09/12 01:35:43;;;;;;;;;;;13.00;99.90;;;;;;5006167;28;20289;-68
2022/09/12 01:38:20;;;;;;;;;;;13.00;99.90;;;;;;5006378;28;20487;-68
2022/09/12 01:40:49;;;;;;;;;;;13.00;99.90;;;;;;4988481;28;19921;-68
2022/09/12 01:43:21;;;;;;;;;;;13.00;99.90;;;;;;5005790;28;20134;-68
2022/09/12 01:45:59;;;;;;;;;;;13.00;99.90;;;;;;4989221;28;19979;-68
2022/09/12 01:48:34;;;;;;;;;;;13.00;99.90;;;;;;5005952;28;19918;-68
2022/09/12 01:51:13;;;;;;;;;;;12.90;99.90;;;;;;5005458;28;19979;-68
2022/09/12 01:53:42;;;;;;;;;;;12.90;99.90;;;;;;5005786;28;20012;-68
2022/09/12 01:56:13;;;;;;;;;;;12.90;99.90;;;;;;5005891;28;19925;-68
2022/09/12 01:58:48;;;;;;;;;;;12.90;99.90;;;;;;5006232;28;19924;-68
2022/09/12 02:01:23;;;;;;;;;;;12.90;99.90;;;;;;5005241;28;19972;-68
2022/09/12 02:03:52;;;;;;;;;;;12.90;99.90;;;;;;4989560;28;19972;-68
2022/09/12 02:06:21;;;;;;;;;;;12.90;99.90;;;;;;5005609;28;19953;-68
2022/09/12 02:08:50;;;;;;;;;;;12.90;99.90;;;;;;5005042;28;20445;-68
2022/09/12 02:11:17;;;;;;;;;;;12.90;99.90;;;;;;5005056;28;19921;-68
2022/09/12 02:14:09;;;;;;;;;;;12.90;99.90;;;;;;5005070;28;19917;-68
2022/09/12 02:16:45;;;;;;;;;;;12.90;99.90;;;;;;4975278;28;20392;-68
2022/09/12 02:19:15;;;;;;;;;;;12.90;99.90;;;;;;5005294;28;19921;-68
2022/09/12 02:21:44;;;;;;;;;;;12.90;99.90;;;;;;4998686;28;19990;-68
2022/09/12 02:24:11;;;;;;;;;;;12.90;99.90;;;;;;5005096;28;19922;-68
2022/09/12 02:26:42;;;;;;;;;;;12.90;99.90;;;;;;5005599;28;19929;-68
2022/09/12 02:29:08;;;;;;;;;;;12.90;99.90;;;;;;4988507;28;19943;-68
2022/09/12 02:31:47;;;;;;;;;;;12.80;99.90;;;;;;5005693;28;19917;-68
2022/09/12 02:34:20;;;;;;;;;;;12.80;99.90;;;;;;4988897;28;20374;-68
2022/09/12 02:37:05;;;;;;;;;;;12.80;99.90;;;;;;5005255;28;19948;-68
2022/09/12 02:39:31;;;;;;;;;;;12.80;99.90;;;;;;4981116;28;20523;-68
2022/09/12 02:41:59;;;;;;;;;;;12.70;99.90;;;;;;4987732;28;19921;-68
2022/09/12 02:44:25;;;;;;;;;;;12.70;99.90;;;;;;4989093;28;20402;-68
2022/09/12 02:46:54;;;;;;;;;;;12.70;99.90;;;;;;4989117;28;19917;-68
2022/09/12 02:49:19;;;;;;;;;;;12.70;99.90;;;;;;4985611;28;20035;-68
2022/09/12 02:51:45;;;;;;;;;;;12.60;99.90;;;;;;5004879;28;20076;-68
2022/09/12 02:54:11;;;;;;;;;;;12.60;99.90;;;;;;4988730;28;19960;-68
2022/09/12 02:56:40;;;;;;;;;;;12.60;99.90;;;;;;4988891;28;19921;-68
2022/09/12 02:59:06;;;;;;;;;;;12.50;99.90;;;;;;5005673;28;19917;-68
2022/09/12 03:01:39;;;;;;;;;;;12.50;99.90;;;;;;5004896;28;19932;-68
2022/09/12 03:04:17;;;;;;;;;;;12.50;99.90;;;;;;5007942;28;19921;-68
2022/09/12 03:06:45;;;;;;;;;;;12.50;99.90;;;;;;5009531;28;19918;-68
2022/09/12 03:09:14;;;;;;;;;;;12.50;99.90;;;;;;5008381;28;19944;-68
2022/09/12 03:11:51;;;;;;;;;;;12.40;99.90;;;;;;5009078;28;20302;-68
2022/09/12 03:14:34;;;;;;;;;;;12.40;99.90;;;;;;5008557;28;19925;-68
2022/09/12 03:17:03;;;;;;;;;;;12.50;99.90;;;;;;4992766;28;19964;-68
2022/09/12 03:19:47;;;;;;;;;;;12.50;99.90;;;;;;4992834;28;19964;-68
2022/09/12 03:22:25;;;;;;;;;;;12.50;99.90;;;;;;5008960;28;20347;-68
2022/09/12 03:25:10;;;;;;;;;;;12.50;99.90;;;;;;5000085;28;19924;-68
2022/09/12 03:27:38;;;;;;;;;;;12.50;99.90;;;;;;5008996;28;20282;-68
2022/09/12 03:30:05;;;;;;;;;;;12.50;99.90;;;;;;5008577;28;19921;-68
2022/09/12 03:32:44;;;;;;;;;;;12.50;99.90;;;;;;4992922;28;19968;-68
2022/09/12 03:35:10;;;;;;;;;;;12.50;99.90;;;;;;5007931;28;19987;-68
2022/09/12 03:37:36;;;;;;;;;;;12.50;99.90;;;;;;4992511;28;20000;-68
2022/09/12 03:40:03;;;;;;;;;;;12.50;99.90;;;;;;5008348;28;20437;-69
2022/09/12 03:42:28;;;;;;;;;;;12.50;99.90;;;;;;5001275;28;19941;-69
2022/09/12 03:44:54;;;;;;;;;;;12.60;99.90;;;;;;4991558;28;20336;-69
2022/09/12 03:47:19;;;;;;;;;;;12.60;99.90;;;;;;4992404;28;19917;-68
2022/09/12 03:49:45;;;;;;;;;;;12.60;99.90;;;;;;5008297;28;19921;-68
2022/09/12 03:52:11;;;;;;;;;;;12.60;99.90;;;;;;4992189;28;20138;-69
2022/09/12 03:54:36;;;;;;;;;;;12.60;99.90;;;;;;4992028;28;20024;-68
2022/09/12 03:57:02;;;;;;;;;;;12.60;99.90;;;;;;4993210;28;19955;-69
2022/09/12 03:59:27;;;;;;;;;;;12.60;99.90;;;;;;5007648;28;19925;-69
2022/09/12 04:01:53;;;;;;;;;;;12.70;99.90;;;;;;4992908;28;19918;-69
2022/09/12 04:04:19;;;;;;;;;;;12.70;99.90;;;;;;5007413;28;20183;-69
2022/09/12 04:06:44;;;;;;;;;;;12.70;99.90;;;;;;4991845;28;19928;-69
2022/09/12 04:09:10;;;;;;;;;;;12.80;99.90;;;;;;4990912;28;20349;-69
2022/09/12 04:11:35;;;;;;;;;;;12.80;99.90;;;;;;5007994;28;19921;-69
2022/09/12 04:14:01;;;;;;;;;;;12.80;99.90;;;;;;5006643;28;19918;-71
2022/09/12 04:16:26;;;;;;;;;;;12.90;99.90;;;;;;5007793;28;19936;-68
2022/09/12 04:18:52;;;;;;;;;;;12.90;99.90;;;;;;5007437;28;20025;-68
2022/09/12 04:21:20;;;;;;;;;;;12.90;99.90;;;;;;5007874;28;19980;-69
2022/09/12 04:23:46;;;;;;;;;;;12.90;99.90;;;;;;5007480;28;20517;-69
2022/09/12 04:26:12;;;;;;;;;;;13.00;99.90;;;;;;5006725;28;19917;-69
2022/09/12 04:28:38;;;;;;;;;;;13.00;99.90;;;;;;5007433;28;19921;-69
2022/09/12 04:31:06;;;;;;;;;;;13.00;99.90;;;;;;5009473;28;20249;-68
2022/09/12 04:33:32;;;;;;;;;;;13.10;99.90;;;;;;5006496;28;19925;-68
2022/09/12 04:36:02;;;;;;;;;;;13.10;99.90;;;;;;4990772;28;19921;-68
2022/09/12 04:38:28;;;;;;;;;;;13.10;99.90;;;;;;5006820;28;20176;-69
2022/09/12 04:40:53;;;;;;;;;;;13.10;99.90;;;;;;5003046;28;20429;-69
2022/09/12 04:43:19;;;;;;;;;;;13.10;99.90;;;;;;5005902;28;19973;-68
2022/09/12 04:45:45;;;;;;;;;;;13.20;99.90;;;;;;4990413;28;20044;-68
2022/09/12 04:48:10;;;;;;;;;;;13.20;99.90;;;;;;5006106;28;19998;-69
2022/09/12 04:50:36;;;;;;;;;;;13.30;99.90;;;;;;4989964;28;19957;-69
2022/09/12 04:53:01;;;;;;;;;;;13.30;99.90;;;;;;4990510;28;19917;-68
2022/09/12 04:55:27;;;;;;;;;;;13.30;99.90;;;;;;5003725;28;19918;-69
2022/09/12 04:57:52;;;;;;;;;;;13.40;99.90;;;;;;5004182;28;19925;-68
2022/09/12 05:00:18;;;;;;;;;;;13.40;99.90;;;;;;5006278;28;20293;-68
2022/09/12 05:02:44;;;;;;;;;;;13.40;99.90;;;;;;4990564;28;19925;-68
2022/09/12 05:05:10;;;;;;;;;;;13.50;99.90;;;;;;4990194;28;19924;-68
2022/09/12 05:07:36;;;;;;;;;;;13.60;99.90;;;;;;5006367;28;19954;-68
2022/09/12 05:10:03;;;;;;;;;;;13.60;99.90;;;;;;4987570;28;20362;-68
2022/09/12 05:12:29;;;;;;;;;;;13.60;99.90;;;;;;4996154;28;19932;-68
2022/09/12 05:14:55;;;;;;;;;;;13.70;99.90;;;;;;5010527;28;20361;-68
2022/09/12 05:17:21;;;;;;;;;;;13.70;99.90;;;;;;4982442;28;19928;-68
2022/09/12 05:19:47;;;;;;;;;;;13.70;99.90;;;;;;4997234;28;19968;-68
2022/09/12 05:22:12;;;;;;;;;;;13.70;99.90;;;;;;5011917;28;20390;-68
2022/09/12 05:24:38;;;;;;;;;;;13.80;99.90;;;;;;5011807;28;19960;-68
2022/09/12 05:27:04;;;;;;;;;;;13.80;99.90;;;;;;4997230;28;20389;-68
2022/09/12 05:29:30;;;;;;;;;;;13.80;99.90;;;;;;4999617;28;19917;-68
2022/09/12 05:31:55;;;;;;;;;;;13.80;99.90;;;;;;4989535;28;20408;-68
2022/09/12 05:34:21;;;;;;;;;;;13.80;99.90;;;;;;4990581;28;19921;-68
2022/09/12 05:36:47;;;;;;;;;;;13.80;99.90;;;;;;4989068;28;19972;-68
2022/09/12 05:39:12;;;;;;;;;;;13.90;99.90;;;;;;4989659;28;19918;-68
2022/09/12 05:41:38;;;;;;;;;;;13.90;99.90;;;;;;5006992;28;19917;-69
2022/09/12 05:44:04;;;;;;;;;;;13.90;99.90;;;;;;4986924;28;19925;-69
2022/09/12 05:46:34;;;;;;;;;;;13.90;99.90;;;;;;5002795;28;19918;-69
2022/09/12 05:49:04;;;;;;;;;;;13.90;99.90;;;;;;5005371;28;19932;-69
2022/09/12 05:51:34;;;;;;;;;;;14.00;99.90;;;;;;5006416;28;19957;-69
2022/09/12 05:54:00;;;;;;;;;;;14.00;99.90;;;;;;5006418;28;19925;-69
2022/09/12 05:56:27;;;;;;;;;;;14.10;99.90;;;;;;4990772;28;19970;-69
2022/09/12 05:59:03;;;;;;;;;;;14.10;99.90;;;;;;5005339;28;19917;-68
2022/09/12 06:01:29;;;;;;;;;;;14.10;99.90;;;;;;5001995;28;19925;-69
2022/09/12 06:04:01;;;;;;;;;;;14.10;99.90;;;;;;5006328;28;20024;-69
2022/09/12 06:06:27;;;;;;;;;;;14.20;99.90;;;;;;5005867;28;20409;-69
2022/09/12 06:08:55;;;;;;;;;;;14.20;99.90;;;;;;5005543;28;19917;-69
2022/09/12 06:11:22;;;;;;;;;;;14.20;99.90;;;;;;5002064;28;19917;-69
2022/09/12 06:13:48;;;;;;;;;;;14.30;99.90;;;;;;4989651;28;19999;-69
2022/09/12 06:16:21;;;;;;;;;;;14.30;99.90;;;;;;5005500;28;19965;-69
2022/09/12 06:18:54;;;;;;;;;;;14.30;99.90;;;;;;5005664;28;19948;-69
2022/09/12 06:21:20;;;;;;;;;;;14.30;99.90;;;;;;5003792;28;20003;-69
2022/09/12 06:23:46;;;;;;;;;;;14.40;99.90;;;;;;5006080;28;20460;-69
2022/09/12 06:26:13;;;;;;;;;;;14.40;99.90;;;;;;4986879;28;19948;-69
2022/09/12 06:28:39;;;;;;;;;;;14.50;99.90;;;;;;4971593;28;20007;-69
2022/09/12 06:31:06;;;;;;;;;;;14.50;99.90;;;;;;4991471;28;19924;-69
2022/09/12 06:33:35;;;;;;;;;;;14.60;99.90;;;;;;5002880;28;19917;-69
2022/09/12 06:36:24;;;;;;;;;;;14.60;99.90;;;;;;4998619;28;19917;-69
2022/09/12 06:38:55;;;;;;;;;;;14.70;99.90;;;;;;5009701;28;19925;-69
2022/09/12 06:41:20;;;;;;;;;;;14.70;99.90;;;;;;5005843;28;19925;-69
2022/09/12 06:43:46;;;;;;;;;;;14.80;99.90;;;;;;4989641;28;20032;-69
2022/09/12 06:46:11;;;;;;;;;;;14.90;99.90;;;;;;5003060;28;19918;-69
2022/09/12 06:48:37;;;;;;;;;;;14.90;99.90;;;;;;5002322;28;19925;-69
2022/09/12 06:51:06;;;;;;;;;;;14.90;99.90;;;;;;5004842;28;20464;-69
2022/09/12 06:53:32;;;;;;;;;;;15.00;99.90;;;;;;5005682;28;19976;-69
2022/09/12 06:55:59;;;;;;;;;;;15.00;99.90;;;;;;5005856;28;19979;-69
2022/09/12 06:58:25;;;;;;;;;;;15.00;99.90;;;;;;5004211;28;19921;-69
2022/09/12 07:00:51;;;;;;;;;;;15.10;99.90;;;;;;5001696;28;20286;-69
2022/09/12 07:03:17;;;;;;;;;;;15.10;99.90;;;;;;4970794;28;19975;-69
2022/09/12 07:05:43;;;;;;;;;;;15.10;99.90;;;;;;4985597;28;19967;-69
2022/09/12 07:08:09;;;;;;;;;;;15.20;99.90;;;;;;5009708;28;19965;-69
2022/09/12 07:10:34;;;;;;;;;;;15.20;99.90;;;;;;5001460;28;20369;-69
2022/09/12 07:13:00;;;;;;;;;;;15.20;99.90;;;;;;4988280;28;19921;-69
2022/09/12 07:15:26;;;;;;;;;;;15.30;99.90;;;;;;4987185;28;20421;-69
2022/09/12 07:17:51;;;;;;;;;;;15.40;99.90;;;;;;5003016;28;20329;-69
2022/09/12 07:20:17;;;;;;;;;;;15.50;99.90;;;;;;5002452;28;19932;-69
2022/09/12 07:22:42;;;;;;;;;;;15.50;99.90;;;;;;4987710;28;19980;-69
2022/09/12 07:25:08;;;;;;;;;;;15.60;99.90;;;;;;4968831;28;19917;-69
2022/09/12 07:27:34;;;;;;;;;;;15.70;99.90;;;;;;4988045;28;19917;-69
2022/09/12 07:30:00;;;;;;;;;;;15.70;99.90;;;;;;4971522;28;19924;-69
2022/09/12 07:32:26;;;;;;;;;;;15.80;99.90;;;;;;5003906;28;20086;-69
2022/09/12 07:34:51;;;;;;;;;;;15.90;99.70;;;;;;4988751;28;20556;-69
2022/09/12 07:37:17;;;;;;;;;;;16.00;99.70;;;;;;4987840;28;19968;-69
2022/09/12 07:39:43;;;;;;;;;;;16.00;99.70;;;;;;4987956;28;19928;-69
2022/09/12 07:42:10;;;;;;;;;;;16.10;99.50;;;;;;5003877;28;19917;-69
2022/09/12 07:44:35;;;;;;;;;;;16.20;98.50;;;;;;4988382;28;19925;-69
2022/09/12 07:47:01;;;;;;;;;;;16.40;98.30;;;;;;5004277;28;19924;-69
2022/09/12 07:49:27;;;;;;;;;;;16.50;98.00;;;;;;4988860;28;20385;-69
2022/09/12 07:51:52;;;;;;;;;;;16.60;97.90;;;;;;4991461;28;19918;-69
2022/09/12 07:54:18;;;;;;;;;;;16.70;96.90;;;;;;4990387;28;19933;-69
2022/09/12 07:56:44;;;;;;;;;;;16.90;96.20;;;;;;5007236;28;19917;-69
2022/09/12 07:59:10;;;;;;;;;;;17.00;96.70;;;;;;5007637;28;19917;-69
2022/09/12 08:01:36;;;;;;;;;;;17.20;95.00;;;;;;4974848;28;19929;-69
2022/09/12 08:04:03;;;;;;;;;;;17.30;95.30;;;;;;4989790;28;20008;-69
2022/09/12 08:06:31;;;;;;;;;;;17.40;94.10;;;;;;5006045;28;19932;-69
2022/09/12 08:08:57;;;;;;;;;;;17.60;93.50;;;;;;4989207;28;19921;-69
2022/09/12 08:11:23;;;;;;;;;;;17.70;92.20;;;;;;4998625;28;20012;-69
2022/09/12 08:13:51;;;;;;;;;;;17.90;92.70;;;;;;4996561;28;19922;-69
2022/09/12 08:16:17;;;;;;;;;;;18.10;91.20;;;;;;5001083;28;20037;-69
2022/09/12 08:18:43;;;;;;;;;;;18.20;91.20;;;;;;5005580;28;19917;-69
2022/09/12 08:21:11;;;;;;;;;;;18.30;90.20;;;;;;5005914;28;19968;-69
2022/09/12 08:23:37;;;;;;;;;;;18.30;87.80;;;;;;5007271;28;19929;-69
2022/09/12 08:26:03;;;;;;;;;;;18.40;90.10;;;;;;4991413;28;20123;-69
2022/09/12 08:28:29;;;;;;;;;;;18.50;89.00;;;;;;4991002;28;19925;-69
2022/09/12 08:31:15;;;;;;;;;;;18.60;88.20;;;;;;4992225;28;19933;-69
2022/09/12 08:33:41;;;;;;;;;;;18.70;88.90;;;;;;5022834;28;19929;-69
2022/09/12 08:36:09;;;;;;;;;;;18.80;87.60;;;;;;5007876;28;19921;-69
2022/09/12 08:38:34;;;;;;;;;;;18.80;85.40;;;;;;5001282;28;19924;-69
2022/09/12 08:41:08;;;;;;;;;;;18.90;85.80;;;;;;4985797;28;19996;-69
2022/09/12 08:43:40;;;;;;;;;;;19.00;85.50;;;;;;5006357;28;19922;-69
2022/09/12 08:46:09;;;;;;;;;;;19.10;86.90;;;;;;5008099;28;20421;-69
2022/09/12 08:48:35;;;;;;;;;;;19.10;84.40;;;;;;4985230;28;19980;-69
2022/09/12 08:51:03;;;;;;;;;;;19.30;86.00;;;;;;5003311;28;20369;-69
2022/09/12 08:53:34;;;;;;;;;;;19.40;85.40;;;;;;5007355;28;19921;-69
2022/09/12 08:56:01;;;;;;;;;;;19.50;85.10;;;;;;5007469;28;19929;-69
2022/09/12 08:58:27;;;;;;;;;;;19.50;81.80;;;;;;5007737;28;20273;-69
2022/09/12 09:01:12;;;;;;;;;;;19.50;82.70;;;;;;5006385;28;19926;-69
2022/09/12 09:03:50;;;;;;;;;;;19.60;82.50;;;;;;5014150;28;20008;-69
2022/09/12 09:06:31;;;;;;;;;;;19.80;84.90;;;;;;5006854;28;19921;-69
2022/09/12 09:09:29;;;;;;;;;;;19.90;81.00;;;;;;5006987;28;20370;-69
2022/09/12 09:12:05;;;;;;;;;;;20.00;82.40;;;;;;4973389;28;20329;-69
2022/09/12 09:14:49;;;;;;;;;;;20.10;79.80;;;;;;5007608;28;20366;-69
2022/09/12 09:17:32;;;;;;;;;;;20.10;81.10;;;;;;5006627;28;20476;-69
2022/09/12 09:20:11;;;;;;;;;;;20.10;78.40;;;;;;4990643;28;20022;-69
2022/09/12 09:22:39;;;;;;;;;;;20.20;81.10;;;;;;5007556;28;20085;-69
2022/09/12 09:25:09;;;;;;;;;;;20.10;79.70;;;;;;5007308;28;19917;-69
2022/09/12 09:27:39;;;;;;;;;;;20.30;80.60;;;;;;5007261;28;20277;-69
2022/09/12 09:30:08;;;;;;;;;;;20.40;78.00;;;;;;5006581;28;19917;-70
2022/09/12 09:32:36;;;;;;;;;;;20.60;76.80;;;;;;4991131;28;20322;-69
2022/09/12 09:35:11;;;;;;;;;;;20.70;74.90;;;;;;5006874;28;19921;-69
2022/09/12 09:37:55;;;;;;;;;;;20.80;74.70;;;;;;5006399;28;19921;-69
2022/09/12 09:40:33;;;;;;;;;;;20.90;76.20;;;;;;5005515;28;20388;-69
2022/09/12 09:43:02;;;;;;;;;;;21.10;73.00;;;;;;4990006;28;20405;-69
2022/09/12 09:45:28;;;;;;;;;;;21.20;72.30;;;;;;4990551;28;19928;-69
2022/09/12 09:48:00;;;;;;;;;;;21.30;71.90;;;;;;5006531;28;20270;-69
2022/09/12 09:50:26;;;;;;;;;;;21.30;72.60;;;;;;5007022;28;20350;-69
2022/09/12 09:52:53;;;;;;;;;;;21.40;71.80;;;;;;5007162;28;19956;-69
2022/09/12 09:55:22;;;;;;;;;;;21.40;73.30;;;;;;5006965;28;19971;-69
2022/09/12 09:57:51;;;;;;;;;;;21.50;72.30;;;;;;4989797;28;19921;-69
2022/09/12 10:00:25;;;;;;;;;;;21.50;73.30;;;;;;4981705;28;19957;-69
2022/09/12 10:03:01;;;;;;;;;;;21.60;72.20;;;;;;5004522;28;19928;-69
2022/09/12 10:05:27;;;;;;;;;;;21.60;73.60;;;;;;5006934;28;19925;-69
2022/09/12 10:07:53;;;;;;;;;;;21.70;73.20;;;;;;5006127;28;19940;-69
2022/09/12 10:10:21;;;;;;;;;;;21.70;70.40;;;;;;4987508;28;19924;-69
2022/09/12 10:12:47;;;;;;;;;;;21.70;71.70;;;;;;4989219;28;19931;-69
2022/09/12 10:15:25;;;;;;;;;;;21.70;73.70;;;;;;5006760;28;20357;-69
2022/09/12 10:17:51;;;;;;;;;;;21.80;71.50;;;;;;4995476;28;19917;-70
2022/09/12 10:20:32;;;;;;;;;;;21.80;71.30;;;;;;5005826;28;19925;-70
2022/09/12 10:23:18;;;;;;;;;;;21.90;71.70;;;;;;5006465;28;20405;-70
2022/09/12 10:25:52;;;;;;;;;;;21.90;71.00;;;;;;5011238;28;19917;-70
2022/09/12 10:28:25;;;;;;;;;;;22.00;72.40;;;;;;5005302;28;19921;-70
2022/09/12 10:30:51;;;;;;;;;;;22.00;68.70;;;;;;4997046;28;19960;-69
2022/09/12 10:33:17;;;;;;;;;;;21.90;68.30;;;;;;4989185;28;19921;-69
2022/09/12 10:35:47;;;;;;;;;;;22.00;70.00;;;;;;4980483;28;19963;-69
2022/09/12 10:38:18;;;;;;;;;;;22.10;67.40;;;;;;5005388;28;19917;-69
2022/09/12 10:40:44;;;;;;;;;;;22.10;68.60;;;;;;5006467;28;19924;-69
2022/09/12 10:43:26;;;;;;;;;;;22.20;70.50;;;;;;5005741;28;19925;-69
2022/09/12 10:45:55;;;;;;;;;;;22.30;67.90;;;;;;4979772;28;19957;-69
2022/09/12 10:48:21;;;;;;;;;;;22.50;67.80;;;;;;5005265;28;19971;-69
2022/09/12 10:50:47;;;;;;;;;;;22.60;68.90;;;;;;5005971;28;19922;-69
2022/09/12 10:53:19;;;;;;;;;;;22.70;67.20;;;;;;4989794;28;19917;-69
2022/09/12 10:56:04;;;;;;;;;;;22.80;66.80;;;;;;5005601;28;20521;-69
2022/09/12 10:58:39;;;;;;;;;;;22.80;68.10;;;;;;5005230;28;19964;-69
2022/09/12 11:01:23;;;;;;;;;;;22.80;68.30;;;;;;4989033;28;19931;-69
2022/09/12 11:04:00;;;;;;;;;;;22.70;63.60;;;;;;5005337;28;19967;-69
2022/09/12 11:06:33;;;;;;;;;;;22.70;64.60;;;;;;5004888;28;19917;-69
2022/09/12 11:08:59;;;;;;;;;;;22.70;65.90;;;;;;5005211;28;19972;-69
2022/09/12 11:11:37;;;;;;;;;;;22.80;65.70;;;;;;5004366;28;19952;-69
2022/09/12 11:14:02;;;;;;;;;;;22.80;66.50;;;;;;5005479;28;19925;-69
2022/09/12 11:16:37;;;;;;;;;;;22.90;66.20;;;;;;5005056;28;20166;-69
2022/09/12 11:19:21;;;;;;;;;;;22.90;63.70;;;;;;5004865;28;19931;-69
2022/09/12 11:22:06;;;;;;;;;;;23.00;63.30;;;;;;5002141;28;19921;-69
2022/09/12 11:24:46;;;;;;;;;;;23.00;61.20;;;;;;5007506;28;19922;-69
2022/09/12 11:27:11;;;;;;;;;;;23.20;64.40;;;;;;5001703;28;20188;-69
2022/09/12 11:29:45;;;;;;;;;;;23.40;64.50;;;;;;5007816;28;20408;-69
2022/09/12 11:32:30;;;;;;;;;;;23.60;64.70;;;;;;4992953;28;19971;-69
2022/09/12 11:35:14;;;;;;;;;;;23.70;64.00;;;;;;4992278;28;19923;-69
2022/09/12 11:37:42;;;;;;;;;;;23.70;62.40;;;;;;5006551;28;19925;-69
2022/09/12 11:40:28;;;;;;;;;;;23.50;59.80;;;;;;4993153;28;20282;-69
2022/09/12 11:42:58;;;;;;;;;;;23.50;61.00;;;;;;5005080;28;19925;-69
2022/09/12 11:45:39;;;;;;;;;;;23.60;62.50;;;;;;5008649;28;19917;-70
2022/09/12 11:48:09;;;;;;;;;;;23.70;60.70;;;;;;5008132;28;19928;-69
2022/09/12 11:50:36;;;;;;;;;;;23.90;59.00;;;;;;5003930;28;19921;-69
2022/09/12 11:53:11;;;;;;;;;;;24.10;59.80;;;;;;5012746;28;19918;-70
2022/09/12 11:55:43;;;;;;;;;;;24.30;59.50;;;;;;4992021;28;20032;-70
2022/09/12 11:58:10;;;;;;;;;;;24.40;58.10;;;;;;4998141;28;20322;-70
2022/09/12 12:00:47;;;;;;;;;;;24.40;57.20;;;;;;5008343;28;19925;-69
2022/09/12 12:03:21;;;;;;;;;;;24.50;58.20;;;;;;5009145;28;19922;-69
2022/09/12 12:05:52;;;;;;;;;;;24.40;56.30;;;;;;4991582;28;19921;-69
2022/09/12 12:08:19;;;;;;;;;;;24.40;58.00;;;;;;5011056;28;19951;-69
2022/09/12 12:10:58;;;;;;;;;;;24.60;58.30;;;;;;4997174;28;20231;-69
2022/09/12 12:13:26;;;;;;;;;;;24.60;55.80;;;;;;4979365;28;19922;-69
2022/09/12 12:15:55;;;;;;;;;;;24.60;55.90;;;;;;5003149;28;20386;-69
2022/09/12 12:18:22;;;;;;;;;;;24.50;57.60;;;;;;5001925;28;19996;-69
2022/09/12 12:20:48;;;;;;;;;;;24.60;58.80;;;;;;4991993;28;20248;-69
2022/09/12 12:23:25;;;;;;;;;;;24.70;56.90;;;;;;4992266;28;19921;-69
2022/09/12 12:25:55;;;;;;;;;;;24.80;56.60;;;;;;4997691;28;20254;-69
2022/09/12 12:28:39;;;;;;;;;;;25.00;56.30;;;;;;5007624;28;20011;-69
2022/09/12 12:31:05;;;;;;;;;;;25.20;55.30;;;;;;5008675;28;20297;-69
2022/09/12 12:33:31;;;;;;;;;;;25.10;53.40;;;;;;4991583;28;19918;-69
2022/09/12 12:35:56;;;;;;;;;;;24.90;56.70;;;;;;4987589;28;19926;-69
2022/09/12 12:38:25;;;;;;;;;;;25.00;55.00;;;;;;4990355;28;19917;-69
2022/09/12 12:40:50;;;;;;;;;;;24.90;55.80;;;;;;5008454;28;20381;-69
2022/09/12 12:43:30;;;;;;;;;;;24.80;55.70;;;;;;4975521;28;19933;-69
2022/09/12 12:46:04;;;;;;;;;;;24.70;56.60;;;;;;4991512;28;19924;-69
2022/09/12 12:48:32;;;;;;;;;;;24.70;56.50;;;;;;5007676;28;19921;-69
2022/09/12 12:51:14;;;;;;;;;;;24.70;57.30;;;;;;4991017;28;19929;-69
2022/09/12 12:53:40;;;;;;;;;;;24.70;55.60;;;;;;5007882;28;19921;-69
2022/09/12 12:56:24;;;;;;;;;;;24.70;57.60;;;;;;5007361;28;19918;-69
2022/09/12 12:58:56;;;;;;;;;;;24.70;58.20;;;;;;5007806;28;19924;-69
2022/09/12 13:01:22;;;;;;;;;;;24.70;57.80;;;;;;5005701;28;19925;-69
2022/09/12 13:04:00;;;;;;;;;;;24.80;57.00;;;;;;5007879;28;19925;-69
2022/09/12 13:06:31;;;;;;;;;;;24.80;54.90;;;;;;4991046;28;20259;-69
2022/09/12 13:08:59;;;;;;;;;;;24.70;55.30;;;;;;5007097;28;19921;-69
2022/09/12 13:11:33;;;;;;;;;;;24.40;56.70;;;;;;4990977;28;19924;-69
2022/09/12 13:14:00;;;;;;;;;;;24.30;57.80;;;;;;5007443;28;19917;-69
2022/09/12 13:16:35;;;;;;;;;;;24.30;58.40;;;;;;4991032;28;20271;-69
2022/09/12 13:19:03;;;;;;;;;;;24.40;59.40;;;;;;4990733;28;20316;-69
2022/09/12 13:21:28;;;;;;;;;;;24.60;58.00;;;;;;5006857;28;20060;-69
2022/09/12 13:24:02;;;;;;;;;;;24.70;58.00;;;;;;4990659;28;20398;-69
2022/09/12 13:26:31;;;;;;;;;;;24.70;56.70;;;;;;5006671;28;19957;-69
2022/09/12 13:29:17;;;;;;;;;;;24.70;57.00;;;;;;4990286;28;19922;-69
2022/09/12 13:31:44;;;;;;;;;;;24.60;56.50;;;;;;4990989;28;19921;-69
2022/09/12 13:34:13;;;;;;;;;;;24.50;56.80;;;;;;4998730;28;19917;-69
2022/09/12 13:36:50;;;;;;;;;;;24.60;58.40;;;;;;5006687;28;19924;-69
2022/09/12 13:39:18;;;;;;;;;;;24.60;59.20;;;;;;4991067;28;20374;-69
2022/09/12 13:42:02;;;;;;;;;;;24.50;57.20;;;;;;5006863;28;20004;-69
2022/09/12 13:44:28;;;;;;;;;;;24.50;59.10;;;;;;5006520;28;19976;-69
2022/09/12 13:46:57;;;;;;;;;;;24.70;59.90;;;;;;5006876;28;20285;-69
2022/09/12 13:49:33;;;;;;;;;;;24.80;58.30;;;;;;4989923;28;19960;-69
2022/09/12 13:52:00;;;;;;;;;;;24.90;59.10;;;;;;5007002;28;19955;-69
2022/09/12 13:54:26;;;;;;;;;;;24.90;57.60;;;;;;5006643;28;19967;-69
2022/09/12 13:56:52;;;;;;;;;;;24.80;57.60;;;;;;5006677;28;20386;-70
2022/09/12 13:59:20;;;;;;;;;;;24.80;58.50;;;;;;5005893;28;19924;-69
2022/09/12 14:01:47;;;;;;;;;;;24.90;58.50;;;;;;4986124;28;19921;-69
2022/09/12 14:07:17;;;;;;;;;;;25.00;59.20;;;;;;5006156;28;19921;-69
2022/09/12 14:09:44;;;;;;;;;;;25.00;57.80;;;;;;4994884;28;19917;-69
2022/09/12 14:12:19;;;;;;;;;;;25.10;58.20;;;;;;5006458;28;19926;-69
2022/09/12 14:14:47;;;;;;;;;;;25.10;58.00;;;;;;5006559;28;19917;-69
2022/09/12 14:17:17;;;;;;;;;;;25.00;58.30;;;;;;5005780;28;19924;-69
2022/09/12 14:19:43;;;;;;;;;;;25.10;58.60;;;;;;5006433;28;20350;-69
2022/09/12 14:22:11;;;;;;;;;;;25.20;58.40;;;;;;5006125;28;19944;-69
2022/09/12 14:24:38;;;;;;;;;;;25.10;57.20;;;;;;4989738;28;19921;-69
2022/09/12 14:27:03;;;;;;;;;;;25.00;57.40;;;;;;5005794;28;20012;-69
2022/09/12 14:29:29;;;;;;;;;;;25.00;57.10;;;;;;5005756;28;20352;-69
2022/09/12 14:32:03;;;;;;;;;;;25.00;56.90;;;;;;4989912;28;20015;-69
2022/09/12 14:34:29;;;;;;;;;;;25.00;58.50;;;;;;5005869;28;19984;-70